createdAt,value
2022-12-02T00:01:51.691Z,20.17
2022-12-02T00:04:25.553Z,20.21
2022-12-02T00:06:53.009Z,20.07
2022-12-02T00:09:21.680Z,20.09
2022-12-02T00:11:48.381Z,19.97
2022-12-02T00:14:22.221Z,20.02
2022-12-02T00:16:49.328Z,19.84
2022-12-02T00:19:15.963Z,19.89
2022-12-02T00:21:42.573Z,19.90
2022-12-02T00:24:11.270Z,19.89
2022-12-02T00:26:37.897Z,19.92
2022-12-02T00:29:04.481Z,19.85
2022-12-02T00:31:33.607Z,19.82
2022-12-02T00:34:00.582Z,19.92
2022-12-02T00:36:28.138Z,19.86
2022-12-02T00:38:55.379Z,19.84
2022-12-02T00:41:22.024Z,19.76
2022-12-02T00:44:07.501Z,19.62
2022-12-02T00:46:35.144Z,19.70
2022-12-02T00:49:04.703Z,19.73
2022-12-02T00:51:31.334Z,19.68
2022-12-02T00:53:58.042Z,19.74
2022-12-02T00:56:24.711Z,19.68
2022-12-02T00:58:51.274Z,19.71
2022-12-02T01:01:18.026Z,19.78
2022-12-02T01:03:46.256Z,19.79
2022-12-02T01:06:13.583Z,19.80
2022-12-02T01:08:42.497Z,19.75
2022-12-02T01:11:09.059Z,19.85
2022-12-02T01:13:35.822Z,19.62
2022-12-02T01:16:02.586Z,19.65
2022-12-02T01:18:29.249Z,19.72
2022-12-02T01:20:55.886Z,19.65
2022-12-02T01:23:22.615Z,19.72
2022-12-02T01:25:49.178Z,19.68
2022-12-02T01:28:16.322Z,19.59
2022-12-02T01:30:42.931Z,19.68
2022-12-02T01:33:09.508Z,19.61
2022-12-02T01:35:36.109Z,19.53
2022-12-02T01:38:02.703Z,19.57
2022-12-02T01:40:29.298Z,19.62
2022-12-02T01:42:55.926Z,19.58
2022-12-02T01:45:22.667Z,19.56
2022-12-02T01:47:49.339Z,19.52
2022-12-02T01:50:16.241Z,19.52
2022-12-02T01:52:42.801Z,19.50
2022-12-02T01:55:15.586Z,19.50
2022-12-02T01:57:42.183Z,19.46
2022-12-02T02:00:09.384Z,19.39
2022-12-02T02:02:37.409Z,19.46
2022-12-02T02:05:10.044Z,19.42
2022-12-02T02:07:37.159Z,19.32
2022-12-02T02:10:04.091Z,19.41
2022-12-02T02:12:30.942Z,19.42
2022-12-02T02:14:57.539Z,19.50
2022-12-02T02:17:24.120Z,19.35
2022-12-02T02:19:50.744Z,19.46
2022-12-02T02:22:23.081Z,19.41
2022-12-02T02:24:49.924Z,19.48
2022-12-02T02:27:16.675Z,19.39
2022-12-02T02:29:43.244Z,19.39
2022-12-02T02:32:09.921Z,19.37
2022-12-02T02:34:36.516Z,19.41
2022-12-02T02:37:03.092Z,19.32
2022-12-02T02:39:29.657Z,19.33
2022-12-02T02:41:56.247Z,19.33
2022-12-02T02:44:25.849Z,19.44
2022-12-02T02:46:52.676Z,19.38
2022-12-02T02:49:19.499Z,19.41
2022-12-02T02:51:46.038Z,19.35
2022-12-02T02:54:12.584Z,19.43
2022-12-02T02:56:39.166Z,19.36
2022-12-02T02:59:05.766Z,19.36
2022-12-02T03:01:34.333Z,19.32
2022-12-02T03:04:03.473Z,19.42
2022-12-02T03:06:31.077Z,19.50
2022-12-02T03:08:57.646Z,19.81
2022-12-02T03:11:24.418Z,19.83
2022-12-02T03:13:51.075Z,19.97
2022-12-02T03:16:19.605Z,20.11
2022-12-02T03:18:46.340Z,20.31
2022-12-02T03:21:14.408Z,20.42
2022-12-02T03:23:40.999Z,20.53
2022-12-02T03:26:07.574Z,20.73
2022-12-02T03:28:34.150Z,20.89
2022-12-02T03:31:00.757Z,21.10
2022-12-02T03:33:27.693Z,21.29
2022-12-02T03:35:54.343Z,21.52
2022-12-02T03:38:20.969Z,21.77
2022-12-02T03:40:47.553Z,21.89
2022-12-02T03:43:14.380Z,22.15
2022-12-02T03:45:43.291Z,22.31
2022-12-02T03:48:10.147Z,22.45
2022-12-02T03:50:36.873Z,22.50
2022-12-02T03:53:03.497Z,22.07
2022-12-02T03:55:30.057Z,21.79
2022-12-02T03:58:02.366Z,21.69
2022-12-02T04:00:28.931Z,20.88
2022-12-02T04:02:55.552Z,19.46
2022-12-02T04:05:22.181Z,17.53
2022-12-02T04:07:48.877Z,15.97
2022-12-02T04:10:15.557Z,14.80
2022-12-02T04:12:42.112Z,14.21
2022-12-02T04:15:08.927Z,14.01
2022-12-02T04:17:35.491Z,14.00
2022-12-02T04:20:02.322Z,14.01
2022-12-02T04:22:28.897Z,14.01
2022-12-02T04:24:58.889Z,13.94
2022-12-02T04:27:26.099Z,13.76
2022-12-02T04:29:52.753Z,13.53
2022-12-02T04:32:19.387Z,13.37
2022-12-02T04:34:46.027Z,13.23
2022-12-02T04:37:12.593Z,13.16
2022-12-02T04:39:39.190Z,13.12
2022-12-02T04:42:05.777Z,13.11
2022-12-02T04:44:32.372Z,13.09
2022-12-02T04:46:59.053Z,13.05
2022-12-02T04:49:25.751Z,13.03
2022-12-02T04:51:52.325Z,13.01
2022-12-02T04:54:18.905Z,12.97
2022-12-02T04:56:45.493Z,12.96
2022-12-02T04:59:12.113Z,12.92
2022-12-02T05:01:38.662Z,12.89
2022-12-02T05:04:05.345Z,12.83
2022-12-02T05:06:32.010Z,12.80
2022-12-02T05:08:58.585Z,12.72
2022-12-02T05:11:25.112Z,12.67
2022-12-02T05:13:51.690Z,12.65
2022-12-02T05:16:18.337Z,12.61
2022-12-02T05:18:44.918Z,12.59
2022-12-02T05:21:11.497Z,12.55
2022-12-02T05:23:38.061Z,12.55
2022-12-02T05:26:04.698Z,12.55
2022-12-02T05:28:31.271Z,12.54
2022-12-02T05:30:57.835Z,12.52
2022-12-02T05:33:24.446Z,12.53
2022-12-02T05:35:51.087Z,12.52
2022-12-02T05:38:19.687Z,12.49
2022-12-02T05:40:46.283Z,12.51
2022-12-02T05:43:25.748Z,12.52
2022-12-02T05:45:57.231Z,12.53
2022-12-02T05:48:24.590Z,12.52
2022-12-02T05:50:51.173Z,12.48
2022-12-02T05:53:27.678Z,12.36
2022-12-02T05:55:54.728Z,12.29
2022-12-02T05:58:21.406Z,12.27
2022-12-02T06:00:58.073Z,12.61
2022-12-02T06:03:24.759Z,14.09
2022-12-02T06:05:53.279Z,13.54
2022-12-02T06:08:27.832Z,13.08
2022-12-02T06:11:08.404Z,13.33
2022-12-02T06:13:38.316Z,12.96
2022-12-02T06:16:08.171Z,13.25
2022-12-02T06:18:35.536Z,13.76
2022-12-02T06:21:03.562Z,13.43
2022-12-02T06:23:31.423Z,15.41
2022-12-02T06:25:58.032Z,16.21
2022-12-02T06:28:31.081Z,15.34
2022-12-02T06:31:18.776Z,13.58
2022-12-02T06:33:49.234Z,12.69
2022-12-02T06:36:23.933Z,12.70
2022-12-02T06:38:52.279Z,12.59
2022-12-02T06:41:24.853Z,12.62
2022-12-02T06:44:09.994Z,12.56
2022-12-02T06:46:36.730Z,12.65
2022-12-02T06:49:33.945Z,12.64
2022-12-02T06:52:01.742Z,12.74
2022-12-02T06:54:29.255Z,13.03
2022-12-02T06:56:56.264Z,13.74
2022-12-02T06:59:23.178Z,13.75
2022-12-02T07:01:54.125Z,13.67
2022-12-02T07:04:46.978Z,13.72
2022-12-02T07:07:15.028Z,13.41
2022-12-02T07:09:43.687Z,13.47
2022-12-02T07:12:21.332Z,13.62
2022-12-02T07:14:56.000Z,13.86
2022-12-02T07:17:27.929Z,14.23
2022-12-02T07:20:06.402Z,14.69
2022-12-02T07:22:40.691Z,15.03
2022-12-02T07:25:10.248Z,15.48
2022-12-02T07:27:38.568Z,15.85
2022-12-02T07:30:32.216Z,16.36
2022-12-02T07:32:59.174Z,17.10
2022-12-02T07:35:28.322Z,17.46
2022-12-02T07:37:54.922Z,17.76
2022-12-02T07:40:21.512Z,17.94
2022-12-02T07:42:48.164Z,17.97
2022-12-02T07:45:16.045Z,17.71
2022-12-02T07:47:42.638Z,17.34
2022-12-02T07:50:10.217Z,16.32
2022-12-02T07:52:36.790Z,15.27
2022-12-02T07:55:03.925Z,14.35
2022-12-02T07:57:34.473Z,13.77
2022-12-02T08:00:03.672Z,13.72
2022-12-02T08:02:30.229Z,13.68
2022-12-02T08:04:56.839Z,13.80
2022-12-02T08:07:23.502Z,13.76
2022-12-02T08:09:50.127Z,13.77
2022-12-02T08:12:16.728Z,13.60
2022-12-02T08:14:43.273Z,13.48
2022-12-02T08:17:09.928Z,13.16
2022-12-02T08:19:36.685Z,13.05
2022-12-02T08:22:03.290Z,12.93
2022-12-02T08:24:29.854Z,12.90
2022-12-02T08:26:56.442Z,12.91
2022-12-02T08:29:22.986Z,12.97
2022-12-02T08:31:49.567Z,12.91
2022-12-02T08:34:16.173Z,12.77
2022-12-02T08:36:42.766Z,12.80
2022-12-02T08:39:09.495Z,12.81
2022-12-02T08:41:37.132Z,12.96
2022-12-02T08:44:04.344Z,12.91
2022-12-02T08:46:31.070Z,13.04
2022-12-02T08:48:57.902Z,13.14
2022-12-02T08:51:24.596Z,13.06
2022-12-02T08:53:52.234Z,12.99
2022-12-02T08:56:18.782Z,13.19
2022-12-02T08:58:45.354Z,13.17
2022-12-02T09:01:12.029Z,13.10
2022-12-02T09:03:38.612Z,13.21
2022-12-02T09:06:05.407Z,13.35
2022-12-02T09:08:32.125Z,13.52
2022-12-02T09:10:58.833Z,13.62
2022-12-02T09:13:25.445Z,13.77
2022-12-02T09:15:52.077Z,13.75
2022-12-02T09:18:18.871Z,13.78
2022-12-02T09:20:45.494Z,13.79
2022-12-02T09:23:12.177Z,13.72
2022-12-02T09:25:38.817Z,13.88
2022-12-02T09:28:08.241Z,13.99
2022-12-02T09:30:35.038Z,13.99
2022-12-02T09:33:01.609Z,14.03
2022-12-02T09:35:28.246Z,14.10
2022-12-02T09:37:55.152Z,14.28
2022-12-02T09:40:22.068Z,14.23
2022-12-02T09:42:48.783Z,14.27
2022-12-02T09:45:15.473Z,14.62
2022-12-02T09:47:42.118Z,14.54
2022-12-02T09:50:11.355Z,14.57
2022-12-02T09:52:38.055Z,14.61
2022-12-02T09:55:11.433Z,14.64
2022-12-02T09:57:40.641Z,14.63
2022-12-02T10:00:21.458Z,14.63
2022-12-02T10:02:49.559Z,14.63
2022-12-02T10:05:26.712Z,14.62
2022-12-02T10:07:55.112Z,14.55
2022-12-02T10:10:35.917Z,14.67
2022-12-02T10:13:07.540Z,14.68
2022-12-02T10:15:34.750Z,14.61
2022-12-02T10:18:07.450Z,14.50
2022-12-02T10:20:34.050Z,14.68
2022-12-02T10:23:20.465Z,14.55
2022-12-02T10:25:48.530Z,14.58
2022-12-02T10:28:21.401Z,14.65
2022-12-02T10:30:54.986Z,14.92
2022-12-02T10:33:25.873Z,15.15
2022-12-02T10:35:53.151Z,15.38
2022-12-02T10:38:37.345Z,15.71
2022-12-02T10:41:17.704Z,16.10
2022-12-02T10:43:53.047Z,16.53
2022-12-02T10:46:22.759Z,16.72
2022-12-02T10:48:49.698Z,17.06
2022-12-02T10:51:17.266Z,17.26
2022-12-02T10:53:44.614Z,17.64
2022-12-02T10:56:17.046Z,18.11
2022-12-02T10:58:43.617Z,18.42
2022-12-02T11:01:11.352Z,18.69
2022-12-02T11:03:38.957Z,18.52
2022-12-02T11:06:07.155Z,18.29
2022-12-02T11:08:33.783Z,17.53
2022-12-02T11:11:11.576Z,16.46
2022-12-02T11:14:00.336Z,15.11
2022-12-02T11:16:26.809Z,14.07
2022-12-02T11:19:20.070Z,13.86
2022-12-02T11:21:47.961Z,14.12
2022-12-02T11:24:23.927Z,14.31
2022-12-02T11:26:59.891Z,14.26
2022-12-02T11:29:37.827Z,14.39
2022-12-02T11:32:22.945Z,14.26
2022-12-02T11:35:16.415Z,14.11
2022-12-02T11:37:42.525Z,13.89
2022-12-02T11:40:12.300Z,13.78
2022-12-02T11:42:39.478Z,13.53
2022-12-02T11:45:16.262Z,13.56
2022-12-02T11:47:56.180Z,13.42
2022-12-02T11:50:27.620Z,13.46
2022-12-02T11:52:58.641Z,13.52
2022-12-02T11:55:41.970Z,13.73
2022-12-02T11:58:20.413Z,13.55
2022-12-02T12:01:06.758Z,13.58
2022-12-02T12:03:36.655Z,13.71
2022-12-02T12:06:20.457Z,13.73
2022-12-02T12:08:55.493Z,13.84
2022-12-02T12:11:23.324Z,13.71
2022-12-02T12:14:16.713Z,13.58
2022-12-02T12:16:46.553Z,13.46
2022-12-02T12:19:13.121Z,13.62
2022-12-02T12:21:45.081Z,13.49
2022-12-02T12:24:20.829Z,13.52
2022-12-02T12:26:48.801Z,13.56
2022-12-02T12:29:21.472Z,13.44
2022-12-02T12:31:48.091Z,13.61
2022-12-02T12:34:16.650Z,13.67
2022-12-02T12:36:43.904Z,13.53
2022-12-02T12:39:10.575Z,13.52
2022-12-02T12:41:59.177Z,13.41
2022-12-02T12:44:29.730Z,13.44
2022-12-02T12:46:59.817Z,13.27
2022-12-02T12:49:26.779Z,13.27
2022-12-02T12:51:53.531Z,13.52
2022-12-02T12:54:20.318Z,13.47
2022-12-02T12:56:46.891Z,13.40
2022-12-02T12:59:13.463Z,13.36
2022-12-02T13:01:40.285Z,13.50
2022-12-02T13:04:06.931Z,13.53
2022-12-02T13:06:37.449Z,13.62
2022-12-02T13:09:08.243Z,13.61
2022-12-02T13:11:34.822Z,13.63
2022-12-02T13:14:01.422Z,13.62
2022-12-02T13:16:28.072Z,13.60
2022-12-02T13:18:54.751Z,13.58
2022-12-02T13:21:21.378Z,13.52
2022-12-02T13:23:47.934Z,13.46
2022-12-02T13:26:15.449Z,13.44
2022-12-02T13:28:42.439Z,13.45
2022-12-02T13:31:09.252Z,13.41
2022-12-02T13:33:35.966Z,13.37
2022-12-02T13:36:02.548Z,13.34
2022-12-02T13:38:29.143Z,13.30
2022-12-02T13:40:55.708Z,13.29
2022-12-02T13:43:22.262Z,13.25
2022-12-02T13:45:48.974Z,13.21
2022-12-02T13:48:15.740Z,13.17
2022-12-02T13:50:42.321Z,13.14
2022-12-02T13:53:08.943Z,13.09
2022-12-02T13:55:35.537Z,13.03
2022-12-02T13:58:02.133Z,13.06
2022-12-02T14:00:28.747Z,13.17
2022-12-02T14:02:55.418Z,13.35
2022-12-02T14:05:21.990Z,13.61
2022-12-02T14:07:48.627Z,13.88
2022-12-02T14:10:15.239Z,14.21
2022-12-02T14:12:41.818Z,14.52
2022-12-02T14:15:08.877Z,14.86
2022-12-02T14:17:35.569Z,15.20
2022-12-02T14:20:02.218Z,15.52
2022-12-02T14:22:28.801Z,15.83
2022-12-02T14:24:56.547Z,16.14
2022-12-02T14:27:23.194Z,16.46
2022-12-02T14:29:49.784Z,16.53
2022-12-02T14:32:16.496Z,16.39
2022-12-02T14:34:45.106Z,16.23
2022-12-02T14:37:15.046Z,15.81
2022-12-02T14:39:42.514Z,14.97
2022-12-02T14:42:09.152Z,13.92
2022-12-02T14:44:35.808Z,13.08
2022-12-02T14:47:02.493Z,12.85
2022-12-02T14:49:44.474Z,12.95
2022-12-02T14:52:11.131Z,13.15
2022-12-02T14:54:37.758Z,13.30
2022-12-02T14:57:04.437Z,13.45
2022-12-02T14:59:31.046Z,13.56
2022-12-02T15:01:57.848Z,13.63
2022-12-02T15:04:28.567Z,13.61
2022-12-02T15:06:55.554Z,13.56
2022-12-02T15:09:22.127Z,13.47
2022-12-02T15:11:48.745Z,13.40
2022-12-02T15:14:15.326Z,13.30
2022-12-02T15:16:42.042Z,13.21
2022-12-02T15:19:08.762Z,13.13
2022-12-02T15:21:35.337Z,13.10
2022-12-02T15:24:01.923Z,13.06
2022-12-02T15:26:28.505Z,13.03
2022-12-02T15:28:55.082Z,13.00
2022-12-02T15:31:21.718Z,12.96
2022-12-02T15:33:48.345Z,12.95
2022-12-02T15:36:14.933Z,12.90
2022-12-02T15:38:41.563Z,12.90
2022-12-02T15:41:08.314Z,12.88
2022-12-02T15:43:35.177Z,12.86
2022-12-02T15:46:01.743Z,12.82
2022-12-02T15:48:28.341Z,12.82
2022-12-02T15:50:55.743Z,12.82
2022-12-02T15:53:23.089Z,12.81
2022-12-02T15:55:50.446Z,12.80
2022-12-02T15:58:18.265Z,12.78
2022-12-02T16:00:44.859Z,12.75
2022-12-02T16:03:11.600Z,12.76
2022-12-02T16:05:38.406Z,12.75
2022-12-02T16:08:05.209Z,12.75
2022-12-02T16:10:31.850Z,12.74
2022-12-02T16:12:58.446Z,12.73
2022-12-02T16:15:25.021Z,12.73
2022-12-02T16:17:51.597Z,12.75
2022-12-02T16:20:18.192Z,12.73
2022-12-02T16:22:44.758Z,12.67
2022-12-02T16:25:11.387Z,12.66
2022-12-02T16:27:39.213Z,12.66
2022-12-02T16:30:06.546Z,12.65
2022-12-02T16:32:33.110Z,12.63
2022-12-02T16:34:59.686Z,12.60
2022-12-02T16:37:26.295Z,12.58
2022-12-02T16:39:53.059Z,12.59
2022-12-02T16:42:19.658Z,12.56
2022-12-02T16:44:49.243Z,12.57
2022-12-02T16:47:18.823Z,12.56
2022-12-02T16:49:47.463Z,12.54
2022-12-02T16:52:14.297Z,12.52
2022-12-02T16:54:41.046Z,12.52
2022-12-02T16:57:07.611Z,12.53
2022-12-02T16:59:34.327Z,12.52
2022-12-02T17:02:01.009Z,12.52
2022-12-02T17:04:27.670Z,12.58
2022-12-02T17:06:54.254Z,12.61
2022-12-02T17:09:20.911Z,12.63
2022-12-02T17:11:47.490Z,12.59
2022-12-02T17:14:14.026Z,12.60
2022-12-02T17:16:40.628Z,12.61
2022-12-02T17:19:07.250Z,12.63
2022-12-02T17:21:33.866Z,12.63
2022-12-02T17:24:00.448Z,12.61
2022-12-02T17:26:27.040Z,12.60
2022-12-02T17:28:53.607Z,12.63
2022-12-02T17:31:20.225Z,12.63
2022-12-02T17:33:46.847Z,12.66
2022-12-02T17:36:13.917Z,12.80
2022-12-02T17:38:56.701Z,13.00
2022-12-02T17:41:24.107Z,13.25
2022-12-02T17:43:50.756Z,13.62
2022-12-02T17:46:17.519Z,13.93
2022-12-02T17:48:44.211Z,14.29
2022-12-02T17:51:11.143Z,14.64
2022-12-02T17:53:38.124Z,15.01
2022-12-02T17:56:05.125Z,15.37
2022-12-02T17:58:31.678Z,15.72
2022-12-02T18:00:58.387Z,16.04
2022-12-02T18:03:25.137Z,16.39
2022-12-02T18:05:51.702Z,16.66
2022-12-02T18:08:20.239Z,16.63
2022-12-02T18:10:47.404Z,16.48
2022-12-02T18:13:14.053Z,16.26
2022-12-02T18:15:40.709Z,15.60
2022-12-02T18:18:07.380Z,14.56
2022-12-02T18:20:34.186Z,13.47
2022-12-02T18:23:00.803Z,12.99
2022-12-02T18:25:27.382Z,12.99
2022-12-02T18:27:53.957Z,13.18
2022-12-02T18:30:20.542Z,13.39
2022-12-02T18:32:47.164Z,13.53
2022-12-02T18:35:14.556Z,13.64
2022-12-02T18:37:41.127Z,13.73
2022-12-02T18:40:08.344Z,13.73
2022-12-02T18:42:34.929Z,13.62
2022-12-02T18:45:01.484Z,13.50
2022-12-02T18:47:28.073Z,13.40
2022-12-02T18:49:54.738Z,13.32
2022-12-02T18:52:21.375Z,13.25
2022-12-02T18:54:48.085Z,13.20
2022-12-02T18:57:14.662Z,13.13
2022-12-02T18:59:41.214Z,13.09
2022-12-02T19:02:09.065Z,13.01
2022-12-02T19:04:35.979Z,12.99
2022-12-02T19:07:02.554Z,12.98
2022-12-02T19:09:29.133Z,12.96
2022-12-02T19:11:55.673Z,12.95
2022-12-02T19:14:22.268Z,12.94
2022-12-02T19:16:48.820Z,12.95
2022-12-02T19:19:15.397Z,12.91
2022-12-02T19:21:41.977Z,12.87
2022-12-02T19:24:08.628Z,12.85
2022-12-02T19:26:35.244Z,12.86
2022-12-02T19:29:01.878Z,12.87
2022-12-02T19:31:28.605Z,12.85
2022-12-02T19:33:55.242Z,12.85
2022-12-02T19:36:21.818Z,12.84
2022-12-02T19:38:48.485Z,12.81
2022-12-02T19:41:15.034Z,12.78
2022-12-02T19:43:41.611Z,12.78
2022-12-02T19:46:08.225Z,12.74
2022-12-02T19:48:34.831Z,12.72
2022-12-02T19:51:01.385Z,12.71
2022-12-02T19:53:28.215Z,12.70
2022-12-02T19:55:54.767Z,12.70
2022-12-02T19:58:21.365Z,12.69
2022-12-02T20:00:47.934Z,12.80
2022-12-02T20:03:14.543Z,13.12
2022-12-02T20:05:41.135Z,13.60
2022-12-02T20:08:07.801Z,14.13
2022-12-02T20:10:34.429Z,14.64
2022-12-02T20:13:01.038Z,15.18
2022-12-02T20:15:27.626Z,15.67
2022-12-02T20:17:54.258Z,16.17
2022-12-02T20:20:20.846Z,16.57
2022-12-02T20:22:47.490Z,16.88
2022-12-02T20:25:14.120Z,17.04
2022-12-02T20:27:40.697Z,17.22
2022-12-02T20:30:08.721Z,17.20
2022-12-02T20:32:35.941Z,17.00
2022-12-02T20:35:02.513Z,16.73
2022-12-02T20:37:29.075Z,16.55
2022-12-02T20:39:55.613Z,16.51
2022-12-02T20:42:22.221Z,16.56
2022-12-02T20:44:52.696Z,16.64
2022-12-02T20:47:19.802Z,16.70
2022-12-02T20:49:46.441Z,16.78
2022-12-02T20:52:13.061Z,16.84
2022-12-02T20:54:39.649Z,16.90
2022-12-02T20:57:07.026Z,16.95
2022-12-02T20:59:33.883Z,17.00
2022-12-02T21:02:00.524Z,17.07
2022-12-02T21:04:27.135Z,17.08
2022-12-02T21:06:53.696Z,17.14
2022-12-02T21:09:20.313Z,17.16
2022-12-02T21:11:46.899Z,17.24
2022-12-02T21:14:13.446Z,17.27
2022-12-02T21:16:40.092Z,17.32
2022-12-02T21:19:06.769Z,17.51
2022-12-02T21:21:33.449Z,17.76
2022-12-02T21:24:03.639Z,17.96
2022-12-02T21:26:30.867Z,18.12
2022-12-02T21:28:57.452Z,18.33
2022-12-02T21:31:24.168Z,18.54
2022-12-02T21:33:50.779Z,18.59
2022-12-02T21:36:17.338Z,18.75
2022-12-02T21:38:43.885Z,18.95
2022-12-02T21:41:10.486Z,18.98
2022-12-02T21:43:37.061Z,18.99
2022-12-02T21:46:03.716Z,19.09
2022-12-02T21:48:30.359Z,19.11
2022-12-02T21:50:56.925Z,19.15
2022-12-02T21:53:23.461Z,19.22
2022-12-02T21:55:50.078Z,19.29
2022-12-02T21:58:16.621Z,19.28
2022-12-02T22:00:43.172Z,19.32
2022-12-02T22:03:14.700Z,19.27
2022-12-02T22:05:41.663Z,19.38
2022-12-02T22:08:08.263Z,19.40
2022-12-02T22:10:34.880Z,19.38
2022-12-02T22:13:01.478Z,19.44
2022-12-02T22:15:28.082Z,19.47
2022-12-02T22:17:54.631Z,19.47
2022-12-02T22:20:21.496Z,19.47
2022-12-02T22:22:48.057Z,19.57
2022-12-02T22:25:14.633Z,19.51
2022-12-02T22:27:41.199Z,19.58
2022-12-02T22:30:08.475Z,19.59
2022-12-02T22:32:35.457Z,19.62
2022-12-02T22:35:02.768Z,19.62
2022-12-02T22:37:29.311Z,19.62
2022-12-02T22:39:55.889Z,19.65
2022-12-02T22:42:22.430Z,19.71
2022-12-02T22:44:49.055Z,19.71
2022-12-02T22:47:15.600Z,19.71
2022-12-02T22:49:42.161Z,19.71
2022-12-02T22:52:08.755Z,19.73
2022-12-02T22:54:35.327Z,19.69
2022-12-02T22:57:01.856Z,19.74
2022-12-02T22:59:28.416Z,19.82
2022-12-02T23:01:55.040Z,19.86
2022-12-02T23:04:21.640Z,19.74
2022-12-02T23:06:48.449Z,19.81
2022-12-02T23:09:15.139Z,19.88
2022-12-02T23:11:41.700Z,19.90
2022-12-02T23:14:08.291Z,19.79
2022-12-02T23:16:34.920Z,19.85
2022-12-02T23:19:01.526Z,19.82
2022-12-02T23:21:28.119Z,19.88
2022-12-02T23:23:54.684Z,19.95
2022-12-02T23:26:21.334Z,19.93
2022-12-02T23:28:47.924Z,19.89
2022-12-02T23:31:14.578Z,19.97
2022-12-02T23:33:41.365Z,19.90
2022-12-02T23:36:08.280Z,20.01
2022-12-02T23:38:34.855Z,19.93
2022-12-02T23:41:01.452Z,19.91
2022-12-02T23:43:29.019Z,19.92
2022-12-02T23:45:55.691Z,19.99
2022-12-02T23:48:22.293Z,20.01
2022-12-02T23:50:48.937Z,20.00
2022-12-02T23:53:15.462Z,19.96
2022-12-02T23:55:42.075Z,20.07
2022-12-02T23:58:09.156Z,20.08
